createdAt,value
2022-11-13T00:00:02.701Z,21.62
2022-11-13T00:01:03.346Z,21.62
2022-11-13T00:02:03.939Z,21.64
2022-11-13T00:03:04.534Z,21.66
2022-11-13T00:04:05.131Z,21.61
2022-11-13T00:05:05.725Z,21.54
2022-11-13T00:06:06.323Z,21.58
2022-11-13T00:07:06.937Z,21.54
2022-11-13T00:08:07.523Z,21.52
2022-11-13T00:09:08.114Z,21.55
2022-11-13T00:10:08.709Z,21.51
2022-11-13T00:11:09.353Z,21.45
2022-11-13T00:12:09.949Z,21.54
2022-11-13T00:13:10.847Z,21.51
2022-11-13T00:14:11.441Z,21.52
2022-11-13T00:15:12.086Z,21.42
2022-11-13T00:16:12.683Z,21.54
2022-11-13T00:17:13.278Z,21.46
2022-11-13T00:18:13.874Z,21.45
2022-11-13T00:19:14.469Z,21.36
2022-11-13T00:20:15.153Z,21.42
2022-11-13T00:21:16.568Z,21.42
2022-11-13T00:22:17.165Z,21.39
2022-11-13T00:23:17.759Z,21.37
2022-11-13T00:24:18.356Z,21.45
2022-11-13T00:25:18.952Z,21.36
2022-11-13T00:26:19.548Z,21.42
2022-11-13T00:27:20.141Z,21.37
2022-11-13T00:28:20.739Z,21.39
2022-11-13T00:29:21.335Z,21.37
2022-11-13T00:31:23.153Z,21.37
2022-11-13T00:32:24.597Z,21.40
2022-11-13T00:33:45.456Z,21.37
2022-11-13T00:34:46.403Z,21.42
2022-11-13T00:35:28.420Z,21.39
2022-11-13T00:36:28.998Z,21.36
2022-11-13T00:37:29.590Z,21.36
2022-11-13T00:38:30.466Z,21.36
2022-11-13T00:39:31.205Z,21.37
2022-11-13T00:40:31.801Z,21.35
2022-11-13T00:41:32.393Z,21.35
2022-11-13T00:42:32.987Z,21.36
2022-11-13T00:43:33.585Z,21.32
2022-11-13T00:44:34.182Z,21.29
2022-11-13T00:45:34.778Z,21.37
2022-11-13T00:46:35.377Z,21.29
2022-11-13T00:47:35.970Z,21.27
2022-11-13T00:48:36.564Z,21.32
2022-11-13T00:49:37.160Z,21.33
2022-11-13T00:50:37.842Z,21.30
2022-11-13T00:51:38.408Z,21.27
2022-11-13T00:52:39.058Z,21.25
2022-11-13T00:53:39.651Z,21.36
2022-11-13T00:54:40.245Z,21.24
2022-11-13T00:55:40.841Z,21.21
2022-11-13T00:56:41.435Z,21.32
2022-11-13T00:57:42.032Z,21.33
2022-11-13T00:58:42.629Z,21.29
2022-11-13T00:59:43.225Z,21.25
2022-11-13T01:00:43.818Z,21.14
2022-11-13T01:01:45.275Z,21.30
2022-11-13T01:02:45.899Z,21.29
2022-11-13T01:03:46.495Z,21.24
2022-11-13T01:04:47.090Z,21.20
2022-11-13T01:05:47.836Z,21.24
2022-11-13T01:06:48.427Z,21.21
2022-11-13T01:07:49.014Z,21.18
2022-11-13T01:08:49.608Z,21.22
2022-11-13T01:09:50.201Z,21.18
2022-11-13T01:10:53.765Z,21.20
2022-11-13T01:11:52.385Z,21.24
2022-11-13T01:12:52.982Z,21.25
2022-11-13T01:13:53.576Z,21.17
2022-11-13T01:14:54.171Z,21.14
2022-11-13T01:15:54.768Z,21.14
2022-11-13T01:16:55.362Z,21.14
2022-11-13T01:17:55.956Z,21.12
2022-11-13T01:18:56.555Z,21.15
2022-11-13T01:19:57.207Z,21.18
2022-11-13T01:20:57.896Z,21.14
2022-11-13T01:21:58.456Z,21.15
2022-11-13T01:22:59.049Z,21.07
2022-11-13T01:23:59.643Z,21.21
2022-11-13T01:25:00.236Z,21.17
2022-11-13T01:26:00.834Z,21.18
2022-11-13T01:27:01.429Z,21.12
2022-11-13T01:28:02.025Z,21.12
2022-11-13T01:29:02.620Z,21.14
2022-11-13T01:30:03.279Z,21.11
2022-11-13T01:31:03.874Z,21.17
2022-11-13T01:32:04.470Z,21.17
2022-11-13T01:33:05.064Z,21.11
2022-11-13T01:34:05.660Z,21.12
2022-11-13T01:35:06.406Z,21.14
2022-11-13T01:36:07.080Z,21.15
2022-11-13T01:37:07.704Z,21.12
2022-11-13T01:38:08.300Z,21.11
2022-11-13T01:39:08.892Z,21.12
2022-11-13T01:40:09.540Z,21.14
2022-11-13T01:41:10.132Z,21.11
2022-11-13T01:42:10.736Z,21.03
2022-11-13T01:43:11.375Z,21.07
2022-11-13T01:44:12.031Z,21.09
2022-11-13T01:45:12.619Z,21.14
2022-11-13T01:46:13.210Z,21.20
2022-11-13T01:47:13.807Z,21.12
2022-11-13T01:48:14.402Z,21.12
2022-11-13T01:49:14.996Z,21.12
2022-11-13T01:50:15.591Z,21.06
2022-11-13T01:51:16.267Z,21.07
2022-11-13T01:52:16.839Z,21.14
2022-11-13T01:53:17.433Z,21.07
2022-11-13T01:54:18.029Z,21.05
2022-11-13T01:55:18.627Z,21.12
2022-11-13T01:56:19.272Z,21.17
2022-11-13T01:57:19.872Z,21.06
2022-11-13T01:58:20.461Z,21.06
2022-11-13T01:59:21.055Z,21.07
2022-11-13T02:00:21.650Z,21.07
2022-11-13T02:01:22.314Z,21.05
2022-11-13T02:02:22.906Z,21.05
2022-11-13T02:03:23.501Z,21.11
2022-11-13T02:04:24.099Z,21.02
2022-11-13T02:05:24.757Z,21.03
2022-11-13T02:06:25.434Z,21.07
2022-11-13T02:07:26.003Z,21.02
2022-11-13T02:08:26.849Z,21.03
2022-11-13T02:09:27.613Z,21.07
2022-11-13T02:10:28.208Z,21.07
2022-11-13T02:11:28.807Z,21.09
2022-11-13T02:12:29.463Z,21.05
2022-11-13T02:13:30.060Z,21.06
2022-11-13T02:14:30.656Z,21.06
2022-11-13T02:15:31.250Z,21.00
2022-11-13T02:16:31.843Z,21.09
2022-11-13T02:17:32.437Z,21.00
2022-11-13T02:18:33.030Z,21.02
2022-11-13T02:19:33.629Z,21.06
2022-11-13T02:20:34.225Z,21.00
2022-11-13T02:21:34.902Z,21.06
2022-11-13T02:22:35.476Z,21.07
2022-11-13T02:23:36.074Z,21.05
2022-11-13T02:24:37.846Z,21.09
2022-11-13T02:25:38.257Z,21.03
2022-11-13T02:26:38.852Z,21.05
2022-11-13T02:27:39.446Z,21.02
2022-11-13T02:28:40.042Z,21.02
2022-11-13T02:29:40.636Z,21.02
2022-11-13T02:30:41.231Z,21.03
2022-11-13T02:31:41.829Z,21.09
2022-11-13T02:32:42.425Z,21.06
2022-11-13T02:33:43.020Z,21.09
2022-11-13T02:34:43.613Z,21.09
2022-11-13T02:35:44.209Z,20.97
2022-11-13T02:36:44.881Z,21.07
2022-11-13T02:37:45.456Z,21.02
2022-11-13T02:38:46.203Z,21.03
2022-11-13T02:39:46.792Z,20.99
2022-11-13T02:40:47.386Z,21.06
2022-11-13T02:41:47.980Z,21.03
2022-11-13T02:42:48.577Z,21.07
2022-11-13T02:43:49.173Z,21.02
2022-11-13T02:44:49.821Z,21.07
2022-11-13T02:45:50.414Z,21.07
2022-11-13T02:46:51.006Z,20.99
2022-11-13T02:47:51.601Z,20.95
2022-11-13T02:48:52.244Z,21.03
2022-11-13T02:49:52.840Z,21.07
2022-11-13T02:50:54.284Z,21.03
2022-11-13T02:51:55.011Z,21.02
2022-11-13T02:52:55.916Z,21.05
2022-11-13T02:53:56.583Z,21.09
2022-11-13T02:54:57.171Z,21.07
2022-11-13T02:55:57.767Z,21.00
2022-11-13T02:56:58.365Z,20.99
2022-11-13T02:57:58.959Z,21.03
2022-11-13T02:58:59.556Z,20.96
2022-11-13T03:00:00.180Z,20.96
2022-11-13T03:01:00.771Z,21.05
2022-11-13T03:02:01.440Z,20.92
2022-11-13T03:03:02.062Z,21.09
2022-11-13T03:04:02.661Z,20.96
2022-11-13T03:05:12.499Z,20.99
2022-11-13T03:06:04.837Z,21.03
2022-11-13T03:07:05.570Z,21.06
2022-11-13T03:08:06.933Z,20.99
2022-11-13T03:09:07.528Z,20.97
2022-11-13T03:10:08.123Z,21.06
2022-11-13T03:11:08.717Z,20.97
2022-11-13T03:12:09.312Z,21.09
2022-11-13T03:13:09.906Z,21.03
2022-11-13T03:14:10.501Z,21.02
2022-11-13T03:15:11.252Z,21.03
2022-11-13T03:16:11.848Z,21.06
2022-11-13T03:17:12.443Z,21.00
2022-11-13T03:18:13.038Z,21.07
2022-11-13T03:19:13.632Z,21.03
2022-11-13T03:20:14.252Z,21.00
2022-11-13T03:21:14.881Z,21.03
2022-11-13T03:22:15.475Z,20.96
2022-11-13T03:23:16.070Z,21.06
2022-11-13T03:24:16.667Z,20.96
2022-11-13T03:25:17.263Z,20.99
2022-11-13T03:26:17.860Z,21.03
2022-11-13T03:27:18.453Z,20.96
2022-11-13T03:28:19.047Z,20.95
2022-11-13T03:29:19.642Z,21.03
2022-11-13T03:30:20.239Z,20.93
2022-11-13T03:31:20.835Z,21.00
2022-11-13T03:32:21.431Z,20.97
2022-11-13T03:33:22.027Z,20.95
2022-11-13T03:34:22.622Z,20.95
2022-11-13T03:35:23.249Z,20.95
2022-11-13T03:36:23.851Z,20.99
2022-11-13T03:37:24.591Z,21.00
2022-11-13T03:38:25.240Z,20.97
2022-11-13T03:39:26.005Z,20.97
2022-11-13T03:40:26.600Z,21.00
2022-11-13T03:41:27.196Z,20.97
2022-11-13T03:42:27.792Z,20.90
2022-11-13T03:43:28.386Z,20.88
2022-11-13T03:44:28.981Z,20.95
2022-11-13T03:45:29.576Z,20.95
2022-11-13T03:46:30.170Z,20.97
2022-11-13T03:47:30.765Z,20.90
2022-11-13T03:48:31.709Z,20.99
2022-11-13T03:49:32.488Z,20.96
2022-11-13T03:50:33.085Z,20.99
2022-11-13T03:51:33.730Z,20.99
2022-11-13T03:52:34.588Z,20.99
2022-11-13T03:53:35.207Z,20.88
2022-11-13T03:54:35.850Z,20.95
2022-11-13T03:55:36.443Z,20.95
2022-11-13T03:56:37.038Z,20.95
2022-11-13T03:57:37.634Z,20.92
2022-11-13T03:58:40.280Z,20.96
2022-11-13T03:59:39.821Z,20.88
2022-11-13T04:00:40.418Z,20.92
2022-11-13T04:01:41.025Z,20.96
2022-11-13T04:02:41.609Z,20.95
2022-11-13T04:03:42.200Z,20.95
2022-11-13T04:04:42.797Z,20.85
2022-11-13T04:05:43.392Z,20.92
2022-11-13T04:06:44.006Z,20.88
2022-11-13T04:07:44.680Z,20.87
2022-11-13T04:08:45.246Z,20.88
2022-11-13T04:09:45.834Z,20.87
2022-11-13T04:10:46.430Z,20.85
2022-11-13T04:11:47.025Z,20.97
2022-11-13T04:12:47.621Z,20.92
2022-11-13T04:13:48.221Z,20.88
2022-11-13T04:14:49.662Z,20.90
2022-11-13T04:15:50.257Z,20.82
2022-11-13T04:16:50.855Z,20.85
2022-11-13T04:17:51.450Z,20.85
2022-11-13T04:18:52.107Z,20.88
2022-11-13T04:19:52.704Z,20.90
2022-11-13T04:20:53.299Z,20.93
2022-11-13T04:21:53.892Z,20.92
2022-11-13T04:22:54.568Z,20.85
2022-11-13T04:23:55.141Z,20.90
2022-11-13T04:24:55.737Z,20.87
2022-11-13T04:25:56.332Z,20.90
2022-11-13T04:26:56.926Z,20.85
2022-11-13T04:27:57.522Z,20.85
2022-11-13T04:28:58.121Z,20.88
2022-11-13T04:29:58.716Z,20.92
2022-11-13T04:30:59.311Z,20.85
2022-11-13T04:31:59.911Z,20.92
2022-11-13T04:33:00.502Z,20.88
2022-11-13T04:34:01.095Z,20.95
2022-11-13T04:35:01.693Z,20.85
2022-11-13T04:36:02.288Z,20.87
2022-11-13T04:37:02.883Z,20.87
2022-11-13T04:38:03.563Z,20.85
2022-11-13T04:39:04.398Z,20.95
2022-11-13T04:40:04.993Z,20.92
2022-11-13T04:41:05.589Z,20.92
2022-11-13T04:42:06.183Z,20.92
2022-11-13T04:43:06.778Z,20.88
2022-11-13T04:44:07.372Z,20.90
2022-11-13T04:45:07.969Z,20.92
2022-11-13T04:46:08.564Z,20.87
2022-11-13T04:47:09.163Z,20.92
2022-11-13T04:48:09.756Z,20.88
2022-11-13T04:49:10.350Z,20.87
2022-11-13T04:50:10.945Z,20.87
2022-11-13T04:51:11.542Z,20.88
2022-11-13T04:52:12.186Z,20.90
2022-11-13T04:53:12.864Z,20.96
2022-11-13T04:54:13.485Z,20.88
2022-11-13T04:55:14.085Z,20.92
2022-11-13T04:56:14.674Z,20.88
2022-11-13T04:57:15.272Z,20.92
2022-11-13T04:58:15.868Z,20.88
2022-11-13T04:59:16.612Z,20.95
2022-11-13T05:00:17.208Z,20.92
2022-11-13T05:01:17.855Z,20.87
2022-11-13T05:02:18.467Z,20.85
2022-11-13T05:03:19.126Z,20.87
2022-11-13T05:04:19.744Z,20.88
2022-11-13T05:05:20.389Z,20.87
2022-11-13T05:06:20.983Z,20.95
2022-11-13T05:07:21.618Z,20.92
2022-11-13T05:08:22.303Z,20.90
2022-11-13T05:09:22.877Z,20.93
2022-11-13T05:10:23.523Z,20.88
2022-11-13T05:11:24.118Z,20.93
2022-11-13T05:12:24.715Z,20.92
2022-11-13T05:13:25.310Z,20.84
2022-11-13T05:14:25.907Z,20.87
2022-11-13T05:15:26.508Z,20.81
2022-11-13T05:16:27.096Z,20.88
2022-11-13T05:17:27.693Z,20.85
2022-11-13T05:18:28.556Z,20.88
2022-11-13T05:19:29.280Z,20.78
2022-11-13T05:20:29.872Z,20.77
2022-11-13T05:21:30.467Z,20.80
2022-11-13T05:22:31.060Z,20.88
2022-11-13T05:23:31.737Z,20.85
2022-11-13T05:24:33.158Z,20.85
2022-11-13T05:25:33.754Z,20.88
2022-11-13T05:26:34.348Z,20.82
2022-11-13T05:27:35.744Z,20.82
2022-11-13T05:28:36.340Z,20.81
2022-11-13T05:29:36.948Z,20.78
2022-11-13T05:30:37.524Z,20.74
2022-11-13T05:31:38.121Z,20.80
2022-11-13T05:32:38.717Z,20.77
2022-11-13T05:33:39.315Z,20.77
2022-11-13T05:34:39.915Z,20.78
2022-11-13T05:35:40.503Z,20.75
2022-11-13T05:36:41.161Z,20.75
2022-11-13T05:37:42.556Z,20.75
2022-11-13T05:38:43.230Z,20.74
2022-11-13T05:39:43.802Z,20.77
2022-11-13T05:40:44.397Z,20.81
2022-11-13T05:41:44.992Z,20.74
2022-11-13T05:42:45.586Z,20.77
2022-11-13T05:43:46.184Z,20.75
2022-11-13T05:44:46.777Z,20.77
2022-11-13T05:45:47.373Z,20.78
2022-11-13T05:46:47.966Z,20.80
2022-11-13T05:47:48.560Z,20.77
2022-11-13T05:48:49.156Z,20.80
2022-11-13T05:49:49.751Z,20.77
2022-11-13T05:50:50.345Z,20.80
2022-11-13T05:51:50.939Z,20.77
2022-11-13T05:52:51.531Z,20.88
2022-11-13T05:53:53.007Z,20.78
2022-11-13T05:54:53.579Z,20.77
2022-11-13T05:55:54.176Z,20.78
2022-11-13T05:56:54.784Z,20.75
2022-11-13T05:57:55.366Z,20.82
2022-11-13T05:58:55.960Z,20.74
2022-11-13T05:59:56.555Z,20.77
2022-11-13T06:00:57.156Z,20.80
2022-11-13T06:01:57.937Z,20.80
2022-11-13T06:02:58.565Z,20.78
2022-11-13T06:03:59.262Z,20.77
2022-11-13T06:04:59.857Z,20.84
2022-11-13T06:06:00.452Z,20.72
2022-11-13T06:07:01.191Z,20.84
2022-11-13T06:08:01.835Z,20.74
2022-11-13T06:09:02.518Z,20.77
2022-11-13T06:10:03.247Z,20.77
2022-11-13T06:11:03.828Z,20.80
2022-11-13T06:12:04.426Z,20.77
2022-11-13T06:13:05.018Z,20.72
2022-11-13T06:14:05.615Z,20.77
2022-11-13T06:15:06.212Z,20.74
2022-11-13T06:16:06.812Z,20.77
2022-11-13T06:17:07.399Z,20.77
2022-11-13T06:18:07.995Z,20.84
2022-11-13T06:19:08.639Z,20.87
2022-11-13T06:20:09.234Z,20.78
2022-11-13T06:21:09.830Z,20.81
2022-11-13T06:22:10.424Z,20.81
2022-11-13T06:23:11.019Z,20.84
2022-11-13T06:24:11.791Z,20.81
2022-11-13T06:25:12.361Z,20.78
2022-11-13T06:26:13.006Z,20.77
2022-11-13T06:27:13.604Z,20.75
2022-11-13T06:28:14.199Z,20.74
2022-11-13T06:29:14.794Z,20.82
2022-11-13T06:31:16.387Z,20.81
2022-11-13T06:32:17.033Z,20.80
2022-11-13T06:33:18.477Z,20.77
2022-11-13T06:34:19.070Z,20.75
2022-11-13T06:35:19.717Z,20.74
2022-11-13T06:36:20.310Z,20.81
2022-11-13T06:37:20.919Z,20.75
2022-11-13T06:38:21.501Z,20.81
2022-11-13T06:39:22.250Z,20.74
2022-11-13T06:40:22.748Z,20.77
2022-11-13T06:41:23.736Z,20.80
2022-11-13T06:42:24.293Z,20.78
2022-11-13T06:43:24.888Z,20.81
2022-11-13T06:44:25.481Z,20.77
2022-11-13T06:45:26.077Z,20.78
2022-11-13T06:46:26.671Z,20.77
2022-11-13T06:47:27.264Z,20.70
2022-11-13T06:48:28.110Z,20.69
2022-11-13T06:49:28.916Z,20.77
2022-11-13T06:50:29.514Z,20.78
2022-11-13T06:51:30.104Z,20.78
2022-11-13T06:52:30.699Z,20.80
2022-11-13T06:53:31.293Z,20.78
2022-11-13T06:54:31.973Z,20.74
2022-11-13T06:55:32.543Z,20.65
2022-11-13T06:56:33.139Z,20.77
2022-11-13T06:57:33.882Z,20.69
2022-11-13T06:58:34.478Z,20.74
2022-11-13T06:59:35.072Z,20.72
2022-11-13T07:00:38.178Z,20.74
2022-11-13T07:01:37.273Z,20.72
2022-11-13T07:02:37.871Z,20.72
2022-11-13T07:03:38.465Z,20.74
2022-11-13T07:04:39.062Z,20.77
2022-11-13T07:05:39.657Z,20.69
2022-11-13T07:06:40.702Z,20.74
2022-11-13T07:07:41.336Z,20.74
2022-11-13T07:08:41.920Z,20.72
2022-11-13T07:09:42.597Z,20.74
2022-11-13T07:10:43.168Z,20.72
2022-11-13T07:11:43.762Z,20.70
2022-11-13T07:12:44.360Z,20.70
2022-11-13T07:13:45.005Z,20.70
2022-11-13T07:14:45.599Z,20.65
2022-11-13T07:15:46.195Z,20.63
2022-11-13T07:17:07.987Z,20.69
2022-11-13T07:17:48.383Z,20.72
2022-11-13T07:18:48.977Z,20.69
2022-11-13T07:19:49.572Z,20.69
2022-11-13T07:20:50.165Z,20.70
2022-11-13T07:21:50.761Z,20.65
2022-11-13T07:22:51.357Z,20.62
2022-11-13T07:23:51.949Z,20.75
2022-11-13T07:24:52.546Z,20.69
2022-11-13T07:25:53.142Z,20.70
2022-11-13T07:26:53.739Z,20.72
2022-11-13T07:27:54.331Z,20.63
2022-11-13T07:28:54.928Z,20.62
2022-11-13T07:29:59.491Z,20.66
2022-11-13T07:30:57.116Z,20.70
2022-11-13T07:31:57.710Z,20.62
2022-11-13T07:32:58.302Z,20.63
2022-11-13T07:33:58.897Z,20.59
2022-11-13T07:35:00.344Z,20.62
2022-11-13T07:36:00.940Z,20.62
2022-11-13T07:37:01.584Z,20.62
2022-11-13T07:38:02.282Z,20.75
2022-11-13T07:39:02.875Z,20.63
2022-11-13T07:40:04.403Z,20.67
2022-11-13T07:41:04.972Z,20.66
2022-11-13T07:42:05.567Z,20.63
2022-11-13T07:43:06.163Z,20.60
2022-11-13T07:44:09.455Z,20.74
2022-11-13T07:45:08.352Z,20.62
2022-11-13T07:46:08.940Z,20.59
2022-11-13T07:47:09.538Z,20.72
2022-11-13T07:48:10.133Z,20.69
2022-11-13T07:49:10.728Z,20.67
2022-11-13T07:50:11.322Z,20.66
2022-11-13T07:51:11.918Z,20.70
2022-11-13T07:52:12.511Z,20.65
2022-11-13T07:53:13.108Z,20.59
2022-11-13T07:54:13.704Z,20.62
2022-11-13T07:55:14.382Z,20.70
2022-11-13T07:56:20.244Z,20.62
2022-11-13T07:57:16.542Z,20.62
2022-11-13T07:58:17.135Z,20.62
2022-11-13T07:59:17.780Z,20.65
2022-11-13T08:00:18.379Z,20.67
2022-11-13T08:01:19.019Z,20.66
2022-11-13T08:02:25.090Z,20.66
2022-11-13T08:03:21.221Z,20.65
2022-11-13T08:04:21.816Z,20.66
2022-11-13T08:05:22.412Z,20.72
2022-11-13T08:06:23.011Z,20.69
2022-11-13T08:07:23.634Z,20.65
2022-11-13T08:08:24.225Z,20.65
2022-11-13T08:09:24.822Z,20.66
2022-11-13T08:10:25.493Z,20.66
2022-11-13T08:11:26.068Z,20.70
2022-11-13T08:12:26.664Z,20.66
2022-11-13T08:13:27.257Z,20.62
2022-11-13T08:14:27.851Z,20.65
2022-11-13T08:15:28.449Z,20.65
2022-11-13T08:16:29.040Z,20.67
2022-11-13T08:17:29.688Z,20.65
2022-11-13T08:18:30.612Z,20.63
2022-11-13T08:19:31.494Z,20.66
2022-11-13T08:20:32.086Z,20.66
2022-11-13T08:21:32.682Z,20.65
2022-11-13T08:22:33.284Z,20.65
2022-11-13T08:23:33.866Z,20.65
2022-11-13T08:24:34.459Z,20.65
2022-11-13T08:25:35.134Z,20.63
2022-11-13T08:26:35.706Z,20.66
2022-11-13T08:27:36.300Z,20.65
2022-11-13T08:28:36.902Z,20.65
2022-11-13T08:29:37.490Z,20.63
2022-11-13T08:30:38.085Z,20.65
2022-11-13T08:31:38.680Z,20.67
2022-11-13T08:32:39.274Z,20.65
2022-11-13T08:33:39.868Z,20.65
2022-11-13T08:34:40.462Z,20.65
2022-11-13T08:35:41.859Z,20.67
2022-11-13T08:36:42.450Z,20.60
2022-11-13T08:37:43.047Z,20.60
2022-11-13T08:38:43.640Z,20.63
2022-11-13T08:39:44.235Z,20.62
2022-11-13T08:40:44.931Z,20.69
2022-11-13T08:41:45.503Z,20.65
2022-11-13T08:42:46.098Z,20.67
2022-11-13T08:43:46.740Z,20.70
2022-11-13T08:44:47.383Z,20.63
2022-11-13T08:45:47.977Z,20.66
2022-11-13T08:46:48.574Z,20.66
2022-11-13T08:47:50.017Z,20.65
2022-11-13T08:48:50.611Z,20.65
2022-11-13T08:49:51.208Z,20.62
2022-11-13T08:50:51.802Z,20.65
2022-11-13T08:51:52.401Z,20.66
2022-11-13T08:52:52.998Z,20.63
2022-11-13T08:53:53.595Z,20.65
2022-11-13T08:54:54.191Z,20.66
2022-11-13T08:55:54.864Z,20.66
2022-11-13T08:56:57.247Z,20.63
2022-11-13T08:57:57.078Z,20.63
2022-11-13T08:58:57.673Z,20.65
2022-11-13T08:59:58.271Z,20.62
2022-11-13T09:00:58.868Z,20.62
2022-11-13T09:01:59.466Z,20.62
2022-11-13T09:03:00.062Z,20.65
2022-11-13T09:04:01.487Z,20.63
2022-11-13T09:05:02.094Z,20.67
2022-11-13T09:06:02.736Z,20.62
2022-11-13T09:07:03.382Z,20.63
2022-11-13T09:08:03.984Z,20.63
2022-11-13T09:09:04.579Z,20.60
2022-11-13T09:10:05.174Z,20.60
2022-11-13T09:11:05.853Z,20.62
2022-11-13T09:12:06.419Z,20.65
2022-11-13T09:13:07.013Z,20.65
2022-11-13T09:14:07.609Z,20.63
2022-11-13T09:15:08.203Z,20.70
2022-11-13T09:16:08.798Z,20.63
2022-11-13T09:17:09.416Z,20.75
2022-11-13T09:18:09.991Z,20.63
2022-11-13T09:19:10.587Z,20.72
2022-11-13T09:20:13.724Z,20.74
2022-11-13T09:21:12.771Z,20.74
2022-11-13T09:22:13.517Z,20.66
2022-11-13T09:23:14.116Z,20.70
2022-11-13T09:24:14.708Z,20.74
2022-11-13T09:25:15.304Z,20.74
2022-11-13T09:26:15.984Z,20.70
2022-11-13T09:27:16.554Z,20.74
2022-11-13T09:28:17.150Z,20.70
2022-11-13T09:29:17.746Z,20.72
2022-11-13T09:30:18.342Z,20.65
2022-11-13T09:31:18.945Z,20.74
2022-11-13T09:32:19.535Z,20.77
2022-11-13T09:33:20.132Z,20.69
2022-11-13T09:34:20.732Z,20.77
2022-11-13T09:35:21.326Z,20.74
2022-11-13T09:36:21.922Z,20.75
2022-11-13T09:37:22.519Z,20.69
2022-11-13T09:38:23.114Z,20.75
2022-11-13T09:39:23.775Z,20.75
2022-11-13T09:40:24.369Z,20.67
2022-11-13T09:41:25.052Z,20.80
2022-11-13T09:42:25.618Z,20.77
2022-11-13T09:43:26.212Z,20.78
2022-11-13T09:44:26.809Z,20.77
2022-11-13T09:45:27.405Z,20.80
2022-11-13T09:46:28.002Z,20.77
2022-11-13T09:47:28.599Z,20.77
2022-11-13T09:48:29.643Z,20.77
2022-11-13T09:49:30.435Z,20.85
2022-11-13T09:50:31.031Z,20.78
2022-11-13T09:51:31.677Z,20.77
2022-11-13T09:52:32.272Z,20.84
2022-11-13T09:53:32.916Z,20.80
2022-11-13T09:54:33.524Z,20.81
2022-11-13T09:55:34.108Z,20.81
2022-11-13T09:56:34.789Z,20.77
2022-11-13T09:57:35.360Z,20.82
2022-11-13T09:58:35.956Z,20.87
2022-11-13T09:59:36.549Z,20.82
2022-11-13T10:00:37.149Z,20.84
2022-11-13T10:01:37.845Z,20.88
2022-11-13T10:02:38.442Z,20.82
2022-11-13T10:04:00.581Z,20.88
2022-11-13T10:04:40.628Z,20.85
2022-11-13T10:05:41.223Z,20.95
2022-11-13T10:06:41.927Z,20.88
2022-11-13T10:07:42.525Z,20.85
2022-11-13T10:08:43.121Z,20.92
2022-11-13T10:09:43.717Z,20.88
2022-11-13T10:10:44.316Z,20.88
2022-11-13T10:11:44.997Z,20.87
2022-11-13T10:12:45.567Z,20.90
2022-11-13T10:13:46.164Z,20.92
2022-11-13T10:14:46.769Z,20.88
2022-11-13T10:15:47.359Z,20.95
2022-11-13T10:16:47.954Z,20.85
2022-11-13T10:17:48.548Z,20.88
2022-11-13T10:18:49.146Z,20.85
2022-11-13T10:19:49.740Z,20.84
2022-11-13T10:20:50.336Z,20.95
2022-11-13T10:21:54.872Z,20.92
2022-11-13T10:22:52.522Z,20.99
2022-11-13T10:23:53.119Z,20.95
2022-11-13T10:24:53.718Z,20.96
2022-11-13T10:25:54.314Z,20.95
2022-11-13T10:26:54.990Z,20.93
2022-11-13T10:27:55.619Z,20.97
2022-11-13T10:28:56.302Z,21.00
2022-11-13T10:29:56.923Z,20.96
2022-11-13T10:30:57.519Z,21.02
2022-11-13T10:31:58.118Z,20.96
2022-11-13T10:32:58.711Z,21.00
2022-11-13T10:33:59.307Z,20.97
2022-11-13T10:34:59.904Z,20.99
2022-11-13T10:36:00.503Z,20.99
2022-11-13T10:37:01.098Z,20.96
2022-11-13T10:38:06.578Z,20.95
2022-11-13T10:39:03.285Z,20.95
2022-11-13T10:40:03.927Z,20.97
2022-11-13T10:41:04.523Z,20.85
2022-11-13T10:42:05.203Z,21.02
2022-11-13T10:43:05.772Z,20.95
2022-11-13T10:44:06.369Z,20.95
2022-11-13T10:45:11.159Z,20.97
2022-11-13T10:46:08.554Z,20.99
2022-11-13T10:47:09.150Z,20.96
2022-11-13T10:48:09.749Z,20.96
2022-11-13T10:49:10.341Z,21.00
2022-11-13T10:50:10.941Z,20.99
2022-11-13T10:51:11.689Z,21.02
2022-11-13T10:52:12.286Z,20.96
2022-11-13T10:53:12.880Z,21.00
2022-11-13T10:54:13.478Z,20.97
2022-11-13T10:55:14.127Z,21.00
2022-11-13T10:56:14.722Z,21.00
2022-11-13T10:57:15.466Z,21.02
2022-11-13T10:58:16.036Z,20.96
2022-11-13T10:59:16.631Z,21.05
2022-11-13T11:00:17.279Z,21.02
2022-11-13T11:01:18.036Z,20.99
2022-11-13T11:02:18.620Z,21.03
2022-11-13T11:03:19.214Z,20.99
2022-11-13T11:04:19.811Z,21.02
2022-11-13T11:05:20.405Z,21.00
2022-11-13T11:06:21.001Z,20.97
2022-11-13T11:07:21.984Z,20.97
2022-11-13T11:08:22.685Z,21.02
2022-11-13T11:09:24.134Z,20.95
2022-11-13T11:10:24.830Z,20.96
2022-11-13T11:11:25.424Z,20.97
2022-11-13T11:12:30.920Z,21.00
2022-11-13T11:13:26.676Z,20.96
2022-11-13T11:14:27.274Z,20.88
2022-11-13T11:15:27.871Z,20.99
2022-11-13T11:16:28.466Z,20.99
2022-11-13T11:17:29.063Z,20.96
2022-11-13T11:18:29.951Z,21.02
2022-11-13T11:19:30.769Z,20.95
2022-11-13T11:20:31.365Z,20.96
2022-11-13T11:21:31.960Z,20.85
2022-11-13T11:22:32.558Z,20.96
2022-11-13T11:23:33.152Z,20.92
2022-11-13T11:24:33.751Z,20.90
2022-11-13T11:25:34.346Z,20.93
2022-11-13T11:26:34.956Z,20.85
2022-11-13T11:27:35.627Z,20.87
2022-11-13T11:28:36.205Z,20.92
2022-11-13T11:29:36.792Z,20.84
2022-11-13T11:30:37.386Z,20.85
2022-11-13T11:31:37.983Z,20.88
2022-11-13T11:32:38.581Z,20.88
2022-11-13T11:33:39.178Z,20.92
2022-11-13T11:34:39.771Z,20.88
2022-11-13T11:35:40.367Z,20.87
2022-11-13T11:36:40.966Z,20.90
2022-11-13T11:37:41.565Z,20.85
2022-11-13T11:38:42.157Z,20.90
2022-11-13T11:39:42.760Z,20.90
2022-11-13T11:40:43.351Z,20.90
2022-11-13T11:41:44.797Z,20.87
2022-11-13T11:42:45.473Z,20.88
2022-11-13T11:43:46.045Z,20.84
2022-11-13T11:44:46.639Z,20.93
2022-11-13T11:45:47.235Z,20.87
2022-11-13T11:46:47.833Z,20.92
2022-11-13T11:47:48.433Z,20.87
2022-11-13T11:48:49.027Z,20.87
2022-11-13T11:49:49.623Z,20.92
2022-11-13T11:50:50.219Z,20.96
2022-11-13T11:51:50.815Z,20.93
2022-11-13T11:52:51.412Z,20.87
2022-11-13T11:53:52.007Z,20.87
2022-11-13T11:54:52.606Z,20.92
2022-11-13T11:55:53.253Z,20.84
2022-11-13T11:56:53.851Z,20.95
2022-11-13T11:57:54.533Z,20.87
2022-11-13T11:58:55.100Z,20.87
2022-11-13T11:59:55.698Z,20.93
2022-11-13T12:00:56.343Z,20.87
2022-11-13T12:01:56.939Z,20.87
2022-11-13T12:02:57.536Z,20.88
2022-11-13T12:03:58.137Z,20.93
2022-11-13T12:04:58.829Z,20.90
2022-11-13T12:05:59.437Z,20.82
2022-11-13T12:07:00.103Z,20.87
2022-11-13T12:08:00.745Z,20.87
2022-11-13T12:09:01.341Z,20.90
2022-11-13T12:10:02.808Z,20.97
2022-11-13T12:11:03.468Z,20.85
2022-11-13T12:12:04.038Z,20.88
2022-11-13T12:13:04.717Z,20.88
2022-11-13T12:14:05.290Z,20.84
2022-11-13T12:15:05.886Z,20.96
2022-11-13T12:16:06.483Z,20.85
2022-11-13T12:17:16.458Z,20.87
2022-11-13T12:18:08.671Z,20.87
2022-11-13T12:19:09.269Z,20.87
2022-11-13T12:20:09.868Z,20.88
2022-11-13T12:21:10.515Z,20.90
2022-11-13T12:22:11.112Z,20.87
2022-11-13T12:23:11.707Z,20.88
2022-11-13T12:24:13.102Z,20.85
2022-11-13T12:25:13.698Z,20.88
2022-11-13T12:26:14.358Z,20.85
2022-11-13T12:27:14.953Z,20.93
2022-11-13T12:28:15.634Z,20.88
2022-11-13T12:29:16.205Z,20.88
2022-11-13T12:31:18.325Z,20.92
2022-11-13T12:32:18.971Z,20.92
2022-11-13T12:33:19.618Z,20.84
2022-11-13T12:34:20.216Z,20.92
2022-11-13T12:35:20.813Z,20.88
2022-11-13T12:36:22.263Z,20.88
2022-11-13T12:37:22.857Z,20.85
2022-11-13T12:38:23.452Z,20.88
2022-11-13T12:39:24.048Z,20.87
2022-11-13T12:40:24.643Z,20.82
2022-11-13T12:41:25.241Z,20.82
2022-11-13T12:42:25.837Z,20.90
2022-11-13T12:43:26.517Z,20.92
2022-11-13T12:44:27.238Z,20.90
2022-11-13T12:45:27.831Z,20.84
2022-11-13T12:46:28.428Z,20.87
2022-11-13T12:47:29.873Z,20.93
2022-11-13T12:48:30.715Z,20.82
2022-11-13T12:49:31.482Z,20.87
2022-11-13T12:50:33.033Z,20.85
2022-11-13T12:51:33.666Z,20.88
2022-11-13T12:52:34.262Z,20.92
2022-11-13T12:53:34.858Z,20.90
2022-11-13T12:54:35.454Z,20.85
2022-11-13T12:55:36.050Z,20.88
2022-11-13T12:56:36.651Z,20.93
2022-11-13T12:57:37.274Z,20.87
2022-11-13T12:58:37.959Z,20.90
2022-11-13T12:59:38.526Z,20.90
2022-11-13T13:00:39.123Z,20.92
2022-11-13T13:01:39.744Z,20.90
2022-11-13T13:02:40.330Z,20.90
2022-11-13T13:03:40.922Z,20.84